Time;durP1;ratioP1;P1;durP2;ratioP2;P2;SDS_P1;SDS_P2;PMS_P1;PMS_P2;Temp;Humidity;BMP_temperature;BMP_pressure;BME280_temperature;BME280_humidity;BME280_pressure;Samples;Min_cycle;Max_cycle;Signal;HPM_P1;HPM_P2
2023/12/22 00:00:27;;;;;;;5.18;2.90;;;12.50;91.50;;;;;;4953227;29;20082;-50
2023/12/22 00:02:53;;;;;;;5.63;2.80;;;12.50;91.70;;;;;;4951080;29;20035;-49
2023/12/22 00:05:19;;;;;;;3.42;2.40;;;12.40;91.50;;;;;;4953300;29;20455;-49
2023/12/22 00:07:44;;;;;;;5.45;2.95;;;12.40;91.70;;;;;;4953234;29;20035;-50
2023/12/22 00:10:10;;;;;;;3.58;2.55;;;12.40;91.70;;;;;;4951123;29;20428;-50
2023/12/22 00:12:38;;;;;;;3.78;2.80;;;12.40;92.10;;;;;;4952983;29;20036;-50
2023/12/22 00:15:05;;;;;;;4.38;2.95;;;12.30;92.10;;;;;;4953070;29;20046;-51
2023/12/22 00:17:30;;;;;;;4.75;3.08;;;12.30;92.00;;;;;;4919442;29;20040;-49
2023/12/22 00:19:58;;;;;;;4.80;2.80;;;12.40;92.10;;;;;;4952998;29;20086;-50
2023/12/22 00:22:27;;;;;;;6.00;4.32;;;12.40;92.20;;;;;;4953028;29;20031;-50
2023/12/22 00:24:53;;;;;;;10.68;6.10;;;12.40;92.30;;;;;;4953008;29;20062;-49
2023/12/22 00:27:19;;;;;;;5.30;3.17;;;;;;;;;;4918965;29;20071;-50
2023/12/22 00:29:45;;;;;;;5.55;4.10;;;12.50;97.00;;;;;;4952776;29;20035;-50
2023/12/22 00:32:11;;;;;;;6.43;4.05;;;12.40;92.60;;;;;;4953084;29;20032;-51
2023/12/22 00:34:36;;;;;;;4.00;2.92;;;12.40;92.60;;;;;;4954552;28;20037;-50
2023/12/22 00:37:04;;;;;;;4.97;3.45;;;12.40;92.70;;;;;;4956291;29;20357;-50
2023/12/22 00:39:30;;;;;;;5.28;3.08;;;12.40;92.60;;;;;;4956188;29;20066;-49
2023/12/22 00:41:56;;;;;;;6.43;4.35;;;12.40;92.50;;;;;;4956447;29;20195;-50
2023/12/22 00:44:22;;;;;;;4.15;3.15;;;12.40;92.50;;;;;;4956326;29;20503;-49
2023/12/22 00:46:48;;;;;;;4.80;3.17;;;12.40;92.50;;;;;;4955929;29;20031;-49
2023/12/22 00:49:13;;;;;;;3.00;2.30;;;12.40;92.40;;;;;;4922130;29;20167;-49
2023/12/22 00:51:39;;;;;;;4.30;2.67;;;12.40;92.10;;;;;;4956168;29;20034;-49
2023/12/22 00:54:05;;;;;;;4.22;2.30;;;12.40;91.90;;;;;;4922202;29;20118;-49
2023/12/22 00:56:30;;;;;;;4.15;2.92;;;12.40;91.80;;;;;;4955680;29;20027;-50
2023/12/22 00:58:56;;;;;;;6.63;3.47;;;12.40;91.90;;;;;;4911694;29;1171328;-50
2023/12/22 01:01:22;;;;;;;4.93;2.65;;;12.40;92.00;;;;;;4943469;29;20050;-49
2023/12/22 01:03:48;;;;;;;4.68;2.70;;;12.30;92.10;;;;;;4954914;29;20074;-51
2023/12/22 01:06:14;;;;;;;4.45;3.17;;;12.30;92.20;;;;;;4957129;29;20039;-49
2023/12/22 01:08:40;;;;;;;3.72;2.40;;;12.30;92.30;;;;;;4957209;29;20035;-49
2023/12/22 01:11:06;;;;;;;4.47;2.95;;;12.30;92.50;;;;;;4954931;29;20065;-51
2023/12/22 01:13:31;;;;;;;3.38;2.33;;;12.30;92.50;;;;;;4956942;29;20476;-50
2023/12/22 01:15:57;;;;;;;3.83;2.80;;;12.30;92.50;;;;;;4956797;29;20027;-51
2023/12/22 01:18:25;;;;;;;5.03;3.03;;;12.30;92.50;;;;;;4907397;29;20053;-49
2023/12/22 01:20:50;;;;;;;4.40;3.03;;;12.40;92.70;;;;;;4907754;29;20047;-50
2023/12/22 01:23:16;;;;;;;3.17;2.53;;;12.30;92.70;;;;;;4956875;29;20037;-50
2023/12/22 01:25:42;;;;;;;4.20;2.85;;;12.40;92.60;;;;;;4956688;29;20429;-50
2023/12/22 01:28:07;;;;;;;4.88;2.70;;;12.40;92.50;;;;;;4956821;29;20043;-49
2023/12/22 01:30:33;;;;;;;3.00;2.30;;;12.40;92.30;;;;;;4956727;29;20451;-50
2023/12/22 01:32:59;;;;;;;3.72;2.60;;;12.40;92.10;;;;;;4956460;29;20521;-50
2023/12/22 01:35:24;;;;;;;5.85;4.05;;;12.40;92.10;;;;;;4956653;29;20742;-51
2023/12/22 01:37:51;;;;;;;8.88;7.57;;;12.40;91.90;;;;;;4954284;29;20539;-52
2023/12/22 01:40:17;;;;;;;15.82;11.93;;;12.40;91.80;;;;;;4956608;29;20031;-49
2023/12/22 01:42:43;;;;;;;18.38;13.60;;;12.40;92.00;;;;;;4954349;29;20046;-50
2023/12/22 01:45:10;;;;;;;6.60;4.93;;;12.40;92.00;;;;;;4955522;28;20118;-49
2023/12/22 01:47:36;;;;;;;4.32;3.22;;;12.40;91.90;;;;;;4907255;29;20055;-50
2023/12/22 01:50:02;;;;;;;3.85;2.55;;;12.40;91.80;;;;;;4956211;29;20035;-51
2023/12/22 01:52:28;;;;;;;6.32;4.60;;;12.40;91.80;;;;;;4956414;29;20063;-51
2023/12/22 01:54:55;;;;;;;9.55;4.72;;;12.40;92.10;;;;;;4956416;29;20113;-49
2023/12/22 01:57:21;;;;;;;7.28;4.00;;;12.10;92.70;;;;;;4956198;29;20139;-50
2023/12/22 01:59:49;;;;;;;6.55;4.25;;;12.20;92.80;;;;;;4956001;29;20066;-48
2023/12/22 02:02:16;;;;;;;5.50;3.42;;;12.10;93.20;;;;;;4956202;29;20688;-49
2023/12/22 02:04:43;;;;;;;5.97;4.20;;;11.80;93.30;;;;;;4956065;29;20114;-50
2023/12/22 02:07:10;;;;;;;13.50;8.30;;;11.70;93.40;;;;;;4955916;29;20043;-51
2023/12/22 02:09:37;;;;;;;16.77;10.15;;;;;;;;;;4956200;29;20111;-50
2023/12/22 02:12:03;;;;;;;23.77;13.95;;;11.50;99.90;;;;;;4956055;29;20031;-50
2023/12/22 02:14:29;;;;;;;33.15;18.83;;;11.20;94.30;;;;;;4890633;29;20047;-50
2023/12/22 02:17:11;;;;;;;37.33;23.63;;;11.30;94.50;;;;;;4955754;29;20061;-51
2023/12/22 02:19:45;;;;;;;38.67;25.30;;;11.30;94.30;;;;;;4955972;29;20055;-50
2023/12/22 02:22:12;;;;;;;41.97;28.05;;;11.30;94.10;;;;;;4955302;29;20102;-51
2023/12/22 02:24:39;;;;;;;48.13;31.08;;;11.40;94.00;;;;;;4954582;29;20078;-49
2023/12/22 02:27:06;;;;;;;48.70;31.67;;;11.50;94.00;;;;;;4955329;29;20503;-50
2023/12/22 02:29:37;;;;;;;48.58;32.60;;;11.60;96.40;;;;;;4955554;29;20488;-49
2023/12/22 02:32:12;;;;;;;52.08;34.78;;;11.50;94.10;;;;;;4955547;29;20039;-49
2023/12/22 02:34:41;;;;;;;52.15;33.90;;;11.40;96.90;;;;;;4955715;29;20058;-51
2023/12/22 02:37:08;;;;;;;51.50;35.65;;;10.90;95.20;;;;;;4955566;29;20035;-49
2023/12/22 02:39:35;;;;;;;56.38;34.90;;;10.90;95.80;;;;;;4938198;29;20396;-50
2023/12/22 02:42:02;;;;;;;55.35;34.30;;;11.00;95.40;;;;;;4955285;29;20062;-49
2023/12/22 02:44:28;;;;;;;60.35;38.28;;;;;;;;;;4955407;29;20031;-51
2023/12/22 02:46:54;;;;;;;65.47;39.40;;;;;;;;;;4955190;29;20043;-48
2023/12/22 02:49:21;;;;;;;57.13;38.25;;;;;;;;;;4955124;29;20070;-50
2023/12/22 02:51:46;;;;;;;56.58;37.05;;;11.20;99.90;;;;;;4955159;29;20027;-51
2023/12/22 02:54:12;;;;;;;45.15;30.55;;;11.30;95.60;;;;;;4955346;29;20162;-49
2023/12/22 02:56:38;;;;;;;47.13;33.20;;;11.50;94.80;;;;;;4954388;28;20035;-49
2023/12/22 02:59:04;;;;;;;47.40;31.40;;;;;;;;;;4905464;29;20103;-49
2023/12/22 03:01:29;;;;;;;47.83;32.42;;;11.20;99.90;;;;;;4905467;29;20035;-50
2023/12/22 03:03:55;;;;;;;27.58;18.80;;;10.80;97.20;;;;;;4955247;29;20379;-49
2023/12/22 03:06:21;;;;;;;19.40;12.95;;;10.80;97.20;;;;;;4905144;29;20039;-49
2023/12/22 03:08:46;;;;;;;23.85;13.82;;;10.70;99.20;;;;;;4954780;29;20445;-49
2023/12/22 03:11:12;;;;;;;18.40;11.82;;;10.50;99.90;;;;;;4955080;29;20031;-49
2023/12/22 03:13:38;;;;;;;11.20;6.57;;;10.40;99.90;;;;;;4955107;29;20062;-48
2023/12/22 03:16:08;;;;;;;8.23;4.85;;;10.40;99.90;;;;;;4952698;29;20043;-50
2023/12/22 03:18:34;;;;;;;7.18;5.15;;;10.40;99.90;;;;;;4954668;29;20027;-49
2023/12/22 03:21:00;;;;;;;6.68;3.28;;;10.40;99.90;;;;;;4955101;29;20445;-49
2023/12/22 03:23:25;;;;;;;6.38;4.30;;;10.40;99.90;;;;;;4904997;29;20082;-49
2023/12/22 03:25:51;;;;;;;6.80;4.47;;;10.50;99.90;;;;;;4904896;29;20094;-49
2023/12/22 03:28:17;;;;;;;5.45;2.38;;;10.40;99.90;;;;;;4954707;29;20038;-49
2023/12/22 03:30:43;;;;;;;5.65;3.53;;;;;;;;;;4954578;29;20070;-49
2023/12/22 03:33:08;;;;;;;4.85;3.05;;;10.30;99.90;;;;;;4952436;29;20058;-48
2023/12/22 03:35:34;;;;;;;5.00;3.80;;;10.20;99.90;;;;;;4904709;29;20530;-49
2023/12/22 03:38:00;;;;;;;6.88;4.20;;;10.10;99.90;;;;;;4904789;29;20064;-48
2023/12/22 03:40:26;;;;;;;2.95;2.28;;;10.10;99.90;;;;;;4954403;29;20031;-50
2023/12/22 03:42:52;;;;;;;7.55;3.40;;;9.90;99.90;;;;;;4954365;29;20429;-49
2023/12/22 03:45:17;;;;;;;4.10;2.55;;;9.70;99.90;;;;;;4904653;29;20442;-49
2023/12/22 03:47:43;;;;;;;7.32;4.35;;;9.70;99.90;;;;;;4952121;29;20051;-49
2023/12/22 03:50:09;;;;;;;6.15;4.32;;;9.70;99.90;;;;;;4954223;29;20035;-49
2023/12/22 03:52:35;;;;;;;6.30;4.43;;;9.70;99.90;;;;;;4904676;29;20082;-48
2023/12/22 03:55:01;;;;;;;4.75;3.53;;;9.60;99.90;;;;;;4954315;29;20039;-49
2023/12/22 03:57:26;;;;;;;9.07;5.30;;;9.50;99.90;;;;;;4954238;29;20027;-50
2023/12/22 03:59:52;;;;;;;8.90;5.57;;;9.60;99.90;;;;;;4953706;29;20066;-48
2023/12/22 04:02:18;;;;;;;9.63;6.05;;;9.50;99.90;;;;;;4904629;29;20054;-49
2023/12/22 04:04:43;;;;;;;8.70;7.05;;;9.60;99.90;;;;;;4954130;29;20036;-48
2023/12/22 04:07:09;;;;;;;7.28;4.85;;;9.60;99.90;;;;;;4954014;29;20035;-50
2023/12/22 04:09:38;;;;;;;8.05;5.90;;;9.60;99.90;;;;;;4904068;29;20043;-49
2023/12/22 04:12:03;;;;;;;9.27;6.68;;;9.60;99.90;;;;;;4954109;29;20046;-50
2023/12/22 04:14:29;;;;;;;9.35;6.72;;;9.50;99.90;;;;;;4904312;29;20047;-49
2023/12/22 04:16:56;;;;;;;10.45;7.07;;;9.30;99.90;;;;;;4904269;29;20063;-49
2023/12/22 04:19:22;;;;;;;11.93;6.75;;;9.20;99.90;;;;;;4904795;29;20039;-50
2023/12/22 04:21:47;;;;;;;12.88;9.00;;;9.10;99.90;;;;;;4888088;29;20391;-49
2023/12/22 04:24:13;;;;;;;14.93;9.05;;;9.10;99.90;;;;;;4953798;29;20482;-50
2023/12/22 04:26:39;;;;;;;13.00;9.27;;;9.10;99.90;;;;;;4951536;29;20040;-49
2023/12/22 04:29:05;;;;;;;13.48;9.05;;;9.10;99.90;;;;;;4953949;29;20043;-50
2023/12/22 04:31:31;;;;;;;14.48;10.45;;;9.10;99.90;;;;;;4904029;29;20043;-50
2023/12/22 04:33:56;;;;;;;14.75;10.85;;;9.20;99.90;;;;;;4953679;29;20383;-50
2023/12/22 04:36:22;;;;;;;13.77;10.77;;;9.10;99.90;;;;;;4953773;29;20078;-49
2023/12/22 04:38:48;;;;;;;17.80;11.07;;;9.20;99.90;;;;;;4953723;29;20028;-49
2023/12/22 04:41:13;;;;;;;15.05;10.93;;;9.40;99.90;;;;;;4935620;29;20039;-49
2023/12/22 04:43:39;;;;;;;19.02;9.70;;;9.60;99.90;;;;;;4904014;29;20115;-50
2023/12/22 04:46:05;;;;;;;13.57;10.57;;;;;;;;;;4953625;29;20032;-51
2023/12/22 04:48:33;;;;;;;15.70;10.35;;;10.00;99.90;;;;;;4953622;29;20055;-49
2023/12/22 04:50:58;;;;;;;13.77;9.95;;;10.10;99.90;;;;;;4953491;29;20047;-50
2023/12/22 04:53:24;;;;;;;14.90;10.10;;;10.20;99.90;;;;;;4953572;29;20024;-48
2023/12/22 04:55:50;;;;;;;29.05;18.42;;;;;;;;;;4953713;29;20023;-49
2023/12/22 04:58:16;;;;;;;14.38;11.32;;;10.40;99.90;;;;;;4953384;29;20508;-50
2023/12/22 05:00:42;;;;;;;14.80;9.88;;;10.40;99.90;;;;;;4951788;29;20047;-48
2023/12/22 05:03:07;;;;;;;11.40;9.15;;;10.30;99.90;;;;;;4934368;29;20475;-49
2023/12/22 05:05:33;;;;;;;12.40;9.68;;;10.40;99.90;;;;;;4900490;29;20032;-49
2023/12/22 05:07:59;;;;;;;10.43;8.63;;;10.40;99.90;;;;;;4934116;29;20659;-50
2023/12/22 05:10:25;;;;;;;12.30;9.45;;;10.40;99.90;;;;;;4919095;29;20044;-49
2023/12/22 05:12:50;;;;;;;13.40;9.68;;;10.40;99.90;;;;;;4953630;29;20041;-49
2023/12/22 05:15:16;;;;;;;13.30;10.20;;;10.40;99.90;;;;;;4953101;29;20498;-49
2023/12/22 05:17:42;;;;;;;13.45;10.15;;;10.50;99.90;;;;;;4951115;29;20097;-50
2023/12/22 05:20:09;;;;;;;13.32;10.85;;;10.40;99.90;;;;;;4954159;28;20026;-49
2023/12/22 05:22:36;;;;;;;12.60;9.95;;;10.40;99.90;;;;;;4957165;29;20043;-48
2023/12/22 05:25:02;;;;;;;12.23;9.52;;;10.50;99.90;;;;;;4956421;29;20031;-50
2023/12/22 05:27:28;;;;;;;13.57;10.27;;;10.50;99.90;;;;;;4887762;29;20562;-50
2023/12/22 05:29:54;;;;;;;13.52;10.85;;;10.60;99.90;;;;;;4919475;29;20061;-49
2023/12/22 05:32:19;;;;;;;13.75;10.52;;;10.70;99.90;;;;;;4953661;29;20476;-49
2023/12/22 05:34:45;;;;;;;13.85;10.18;;;10.70;99.90;;;;;;4955932;29;20039;-49
2023/12/22 05:37:11;;;;;;;12.52;10.02;;;10.70;99.90;;;;;;4956732;29;20467;-50
2023/12/22 05:39:37;;;;;;;14.88;11.65;;;10.70;99.90;;;;;;4956245;29;20102;-49
2023/12/22 05:42:03;;;;;;;12.63;9.80;;;10.70;99.90;;;;;;4956275;29;20059;-49
2023/12/22 05:44:30;;;;;;;12.27;10.40;;;10.70;99.90;;;;;;4922494;29;20074;-50
2023/12/22 05:46:59;;;;;;;12.55;10.10;;;10.60;99.90;;;;;;4956355;29;20050;-49
2023/12/22 05:49:25;;;;;;;12.60;9.85;;;10.60;99.90;;;;;;4905318;29;20387;-50
2023/12/22 05:51:51;;;;;;;12.93;9.23;;;10.50;99.90;;;;;;4921693;29;20051;-49
2023/12/22 05:54:19;;;;;;;16.85;10.05;;;10.40;99.90;;;;;;4953169;29;20104;-50
2023/12/22 05:56:45;;;;;;;13.43;11.10;;;10.30;99.90;;;;;;4955699;29;20383;-49
2023/12/22 05:59:11;;;;;;;11.98;8.80;;;10.20;99.90;;;;;;4955718;29;20071;-49
2023/12/22 06:01:36;;;;;;;13.25;10.55;;;10.20;99.90;;;;;;4956155;29;20027;-48
2023/12/22 06:04:03;;;;;;;10.80;9.05;;;10.20;99.90;;;;;;4956471;29;20460;-52
2023/12/22 06:06:29;;;;;;;17.05;12.38;;;10.10;99.90;;;;;;4956170;29;20118;-49
2023/12/22 06:08:55;;;;;;;17.02;12.30;;;10.10;99.90;;;;;;4956129;29;20039;-50
2023/12/22 06:11:24;;;;;;;14.20;9.93;;;10.10;99.90;;;;;;4956222;29;20030;-49
2023/12/22 06:13:50;;;;;;;13.63;9.70;;;10.10;99.90;;;;;;4952677;29;20122;-50
2023/12/22 06:16:18;;;;;;;15.18;11.18;;;10.10;99.90;;;;;;4953115;29;20468;-51
2023/12/22 06:18:43;;;;;;;14.77;11.43;;;10.10;99.90;;;;;;4922381;29;20044;-50
2023/12/22 06:21:10;;;;;;;14.55;11.18;;;10.20;99.90;;;;;;4955743;29;20034;-50
2023/12/22 06:23:36;;;;;;;12.27;10.43;;;10.10;99.90;;;;;;4955760;29;20027;-50
2023/12/22 06:26:07;;;;;;;16.13;9.10;;;10.10;99.90;;;;;;4954178;29;20035;-51
2023/12/22 06:28:36;;;;;;;11.00;9.23;;;10.20;99.90;;;;;;4954865;29;20445;-51
2023/12/22 06:31:01;;;;;;;13.57;10.60;;;10.10;99.90;;;;;;4954763;28;20027;-50
2023/12/22 06:33:27;;;;;;;15.23;10.77;;;10.20;99.90;;;;;;4920980;29;20047;-49
2023/12/22 06:35:53;;;;;;;14.48;9.88;;;10.20;99.90;;;;;;4955447;29;20027;-49
2023/12/22 06:38:19;;;;;;;14.43;10.77;;;10.20;99.90;;;;;;4938214;29;20040;-50
2023/12/22 06:40:46;;;;;;;18.70;12.65;;;10.30;99.90;;;;;;4955606;29;20403;-51
2023/12/22 06:43:13;;;;;;;12.98;9.77;;;10.30;99.90;;;;;;4955331;29;20422;-49
2023/12/22 06:45:39;;;;;;;16.48;11.35;;;10.30;99.90;;;;;;4955361;29;20031;-51
2023/12/22 06:48:06;;;;;;;15.60;10.05;;;10.30;99.90;;;;;;4955132;29;20047;-49
2023/12/22 06:50:32;;;;;;;19.30;12.63;;;10.30;99.90;;;;;;4953138;29;20047;-49
2023/12/22 06:52:58;;;;;;;27.55;19.25;;;10.30;99.90;;;;;;4955295;29;20027;-50
2023/12/22 06:55:23;;;;;;;14.82;10.38;;;10.30;99.90;;;;;;4955397;29;20031;-51
2023/12/22 06:57:49;;;;;;;12.60;9.73;;;10.30;99.90;;;;;;4952946;29;20123;-50
2023/12/22 07:00:16;;;;;;;13.75;9.48;;;10.20;99.90;;;;;;4952787;29;20067;-53
2023/12/22 07:02:42;;;;;;;11.88;7.93;;;10.10;99.90;;;;;;4921175;29;20550;-49
2023/12/22 07:05:21;;;;;;;8.63;6.75;;;10.10;99.90;;;;;;4955421;29;20031;-49
2023/12/22 07:07:47;;;;;;;10.20;8.52;;;10.00;99.90;;;;;;4955134;29;20126;-50
2023/12/22 07:10:12;;;;;;;11.82;10.07;;;9.90;99.90;;;;;;4954924;29;20446;-50
2023/12/22 07:12:39;;;;;;;11.52;9.85;;;10.00;99.90;;;;;;4955154;29;20027;-50
2023/12/22 07:15:06;;;;;;;10.20;8.68;;;9.90;99.90;;;;;;4954869;29;20027;-51
2023/12/22 07:17:33;;;;;;;10.73;7.90;;;9.90;99.90;;;;;;4905847;29;20447;-50
2023/12/22 07:19:59;;;;;;;12.15;8.02;;;9.90;99.90;;;;;;4955213;29;20033;-50
2023/12/22 07:22:24;;;;;;;13.85;9.82;;;9.90;99.90;;;;;;4952560;29;20466;-49
2023/12/22 07:24:52;;;;;;;12.32;8.25;;;9.80;99.90;;;;;;4895138;29;20088;-51
2023/12/22 07:27:18;;;;;;;19.80;11.07;;;9.80;99.90;;;;;;4895189;29;20081;-49
2023/12/22 07:29:44;;;;;;;13.77;9.35;;;9.80;99.90;;;;;;4895331;29;20165;-49
2023/12/22 07:32:10;;;;;;;9.60;8.32;;;9.80;99.90;;;;;;4895079;29;20123;-49
2023/12/22 07:34:35;;;;;;;10.38;8.65;;;9.80;99.90;;;;;;4895195;29;20100;-50
2023/12/22 07:37:01;;;;;;;9.95;7.60;;;9.80;99.90;;;;;;4895165;29;20043;-50
2023/12/22 07:39:27;;;;;;;10.18;8.45;;;9.80;99.90;;;;;;4894988;29;20047;-51
2023/12/22 07:41:52;;;;;;;11.70;8.10;;;9.80;99.90;;;;;;4895092;29;20028;-49
2023/12/22 07:44:18;;;;;;;9.82;7.22;;;9.90;99.90;;;;;;4894602;29;20041;-49
2023/12/22 07:46:44;;;;;;;11.27;7.90;;;10.00;99.90;;;;;;4894822;29;20095;-49
2023/12/22 07:49:10;;;;;;;8.43;6.90;;;10.50;99.90;;;;;;4894889;29;20065;-49
2023/12/22 07:51:36;;;;;;;9.75;6.10;;;;;;;;;;4894974;29;20116;-51
2023/12/22 07:54:01;;;;;;;11.73;8.48;;;12.20;99.90;;;;;;4879146;29;20067;-49
2023/12/22 07:56:27;;;;;;;10.20;7.13;;;12.30;99.90;;;;;;4939777;29;20071;-49
2023/12/22 07:58:53;;;;;;;12.98;9.30;;;11.90;99.90;;;;;;4953872;29;20101;-50
2023/12/22 08:01:19;;;;;;;8.50;6.80;;;11.70;99.90;;;;;;4954177;29;20057;-49
2023/12/22 08:03:44;;;;;;;8.23;6.68;;;11.50;99.90;;;;;;4954057;29;20039;-50
2023/12/22 08:06:10;;;;;;;8.48;6.45;;;12.10;99.90;;;;;;4953966;29;20030;-50
2023/12/22 08:08:36;;;;;;;7.78;5.97;;;12.00;99.90;;;;;;4954336;29;20038;-50
2023/12/22 08:11:02;;;;;;;9.02;6.65;;;11.80;99.90;;;;;;4904585;29;20439;-50
2023/12/22 08:13:28;;;;;;;6.18;4.70;;;11.60;99.90;;;;;;4953908;29;20028;-51
2023/12/22 08:15:54;;;;;;;6.22;4.78;;;11.40;99.90;;;;;;4951856;29;20042;-50
2023/12/22 08:18:19;;;;;;;8.00;5.20;;;11.10;99.90;;;;;;4953805;29;20078;-50
2023/12/22 08:20:45;;;;;;;6.65;5.07;;;11.00;99.90;;;;;;4904426;29;20082;-50
2023/12/22 08:23:12;;;;;;;6.95;6.05;;;10.90;99.90;;;;;;4954094;29;20047;-50
2023/12/22 08:25:39;;;;;;;11.32;9.07;;;11.00;99.90;;;;;;4953901;29;20046;-50
2023/12/22 08:28:05;;;;;;;10.45;8.05;;;10.90;99.90;;;;;;4953758;29;20050;-51
2023/12/22 08:30:31;;;;;;;12.25;8.43;;;10.90;99.90;;;;;;4888401;29;20039;-50
2023/12/22 08:32:56;;;;;;;11.93;8.25;;;10.90;99.90;;;;;;4953895;29;20038;-50
2023/12/22 08:35:22;;;;;;;5.88;4.00;;;10.90;99.90;;;;;;4953719;29;20066;-50
2023/12/22 08:37:48;;;;;;;7.03;6.30;;;11.00;99.90;;;;;;4888203;29;20035;-50
2023/12/22 08:40:14;;;;;;;9.88;8.45;;;11.00;99.90;;;;;;4953732;29;20515;-50
2023/12/22 08:42:40;;;;;;;7.03;5.65;;;11.00;99.90;;;;;;4953572;29;20028;-50
2023/12/22 08:45:06;;;;;;;5.93;4.72;;;10.90;99.90;;;;;;4950126;29;20612;-48
2023/12/22 08:47:32;;;;;;;6.25;5.40;;;10.90;99.90;;;;;;4900005;29;20047;-48
2023/12/22 08:49:57;;;;;;;10.23;6.88;;;10.90;99.90;;;;;;4934230;29;20479;-49
2023/12/22 08:52:23;;;;;;;7.70;6.47;;;10.70;99.90;;;;;;4884742;29;20067;-49
2023/12/22 08:54:49;;;;;;;6.65;5.40;;;10.60;99.90;;;;;;4934950;29;20032;-48
2023/12/22 08:57:14;;;;;;;7.32;6.45;;;10.50;99.90;;;;;;4935930;29;20038;-48
2023/12/22 08:59:40;;;;;;;10.82;8.95;;;10.50;99.90;;;;;;4937824;29;20174;-49
2023/12/22 09:02:06;;;;;;;13.80;11.38;;;10.50;99.90;;;;;;4938490;29;20468;-48
2023/12/22 09:04:32;;;;;;;30.50;20.30;;;10.40;99.90;;;;;;4937984;29;20066;-50
2023/12/22 09:06:57;;;;;;;8.05;6.45;;;10.40;99.90;;;;;;4938072;29;20043;-49
2023/12/22 09:09:24;;;;;;;7.15;6.45;;;10.40;99.90;;;;;;4937774;29;20028;-49
2023/12/22 09:11:50;;;;;;;8.98;6.95;;;10.50;99.90;;;;;;4937749;29;20126;-50
2023/12/22 09:14:16;;;;;;;11.15;8.02;;;10.50;99.90;;;;;;4937845;29;20110;-50
2023/12/22 09:16:44;;;;;;;13.50;9.52;;;10.40;99.90;;;;;;4937487;29;20079;-49
2023/12/22 09:19:10;;;;;;;10.02;8.10;;;10.40;99.90;;;;;;4889608;29;20074;-50
2023/12/22 09:21:35;;;;;;;11.55;8.57;;;10.40;99.90;;;;;;4847301;29;20472;-50
2023/12/22 09:24:01;;;;;;;8.30;6.00;;;10.60;99.90;;;;;;4878685;29;20069;-50
2023/12/22 09:26:27;;;;;;;11.50;9.05;;;10.40;99.90;;;;;;4878535;29;20056;-49
2023/12/22 09:28:54;;;;;;;12.70;10.05;;;10.50;99.90;;;;;;4892467;29;20127;-49
2023/12/22 09:31:20;;;;;;;9.55;7.53;;;10.60;99.90;;;;;;4877828;29;20041;-49
2023/12/22 09:33:46;;;;;;;11.10;8.77;;;10.70;99.90;;;;;;4878305;29;20033;-47
2023/12/22 09:36:12;;;;;;;9.75;8.02;;;10.70;99.90;;;;;;4896087;29;20040;-47
2023/12/22 09:38:37;;;;;;;8.27;7.35;;;10.70;99.90;;;;;;4896833;29;20044;-48
2023/12/22 09:41:03;;;;;;;9.02;7.60;;;10.70;99.90;;;;;;4897045;29;20041;-49
2023/12/22 09:43:33;;;;;;;8.82;7.38;;;10.90;99.90;;;;;;4896984;29;20037;-51
2023/12/22 09:45:59;;;;;;;12.10;8.18;;;10.70;99.90;;;;;;4897005;29;20072;-50
2023/12/22 09:48:29;;;;;;;11.65;8.50;;;10.40;99.90;;;;;;4897027;29;20084;-51
2023/12/22 09:50:55;;;;;;;7.38;4.40;;;10.50;99.90;;;;;;4896907;29;20043;-52
2023/12/22 09:53:21;;;;;;;13.23;7.57;;;10.60;99.90;;;;;;4945400;29;20035;-50
2023/12/22 09:55:49;;;;;;;14.50;7.70;;;10.50;99.90;;;;;;4956093;29;20070;-51
2023/12/22 09:58:18;;;;;;;14.68;8.82;;;10.40;99.90;;;;;;4956132;29;20468;-51
2023/12/22 10:00:44;;;;;;;14.50;9.23;;;10.50;99.90;;;;;;4953752;29;20073;-50
2023/12/22 10:03:12;;;;;;;13.02;8.25;;;10.40;99.90;;;;;;4956090;29;20042;-54
2023/12/22 10:05:39;;;;;;;18.52;9.88;;;10.60;99.90;;;;;;4955745;28;20031;-52
2023/12/22 10:08:06;;;;;;;12.57;8.23;;;10.80;99.90;;;;;;4956028;29;20102;-52
2023/12/22 10:10:33;;;;;;;15.70;8.05;;;11.00;99.90;;;;;;4956244;29;20135;-53
2023/12/22 10:12:59;;;;;;;16.58;9.55;;;12.20;99.90;;;;;;4955719;29;20027;-55
2023/12/22 10:15:26;;;;;;;14.95;9.13;;;;;;;;;;4953761;29;20039;-52
2023/12/22 10:17:53;;;;;;;18.08;9.70;;;13.90;99.90;;;;;;4955600;29;20031;-53
2023/12/22 10:20:19;;;;;;;17.55;9.95;;;14.00;99.90;;;;;;4955753;29;20416;-52
2023/12/22 10:22:46;;;;;;;13.80;8.57;;;13.70;99.90;;;;;;4955596;29;20055;-52
2023/12/22 10:25:15;;;;;;;15.90;10.57;;;13.30;99.50;;;;;;4956106;29;20431;-54
2023/12/22 10:27:43;;;;;;;12.13;8.65;;;13.10;99.90;;;;;;4875125;29;20050;-51
2023/12/22 10:30:29;;;;;;;20.27;10.40;;;13.20;99.90;;;;;;4955906;29;20028;-54
2023/12/22 10:32:55;;;;;;;11.90;6.70;;;13.20;99.90;;;;;;4896001;29;20554;-55
2023/12/22 10:35:23;;;;;;;8.73;6.35;;;12.90;99.90;;;;;;4896095;29;20037;-53
2023/12/22 10:37:52;;;;;;;9.52;6.43;;;12.90;99.90;;;;;;4879877;29;20044;-50
2023/12/22 10:40:18;;;;;;;11.02;7.10;;;12.70;99.70;;;;;;4896162;29;20041;-52
2023/12/22 10:42:44;;;;;;;19.00;11.10;;;12.50;99.90;;;;;;4895915;29;20068;-55
2023/12/22 10:45:10;;;;;;;11.35;7.75;;;12.40;99.90;;;;;;4896086;29;20425;-55
2023/12/22 10:47:39;;;;;;;13.27;8.13;;;12.30;99.90;;;;;;4880109;29;20053;-53
2023/12/22 10:50:05;;;;;;;11.07;7.85;;;12.40;99.90;;;;;;4895895;29;20040;-50
2023/12/22 10:52:31;;;;;;;10.18;8.80;;;;;;;;;;4895962;29;20037;-53
2023/12/22 10:54:58;;;;;;;13.30;8.63;;;12.60;99.90;;;;;;4895567;29;20065;-54
2023/12/22 10:57:24;;;;;;;11.43;8.02;;;12.50;99.90;;;;;;4895468;29;20136;-51
2023/12/22 10:59:52;;;;;;;13.88;9.27;;;12.40;99.90;;;;;;4895507;29;20200;-54
2023/12/22 11:02:19;;;;;;;21.73;10.57;;;;;;;;;;4895859;29;20029;-54
2023/12/22 11:04:57;;;;;;;17.10;12.13;;;;;;;;;;4945519;29;20086;-53
2023/12/22 11:07:25;;;;;;;15.05;10.23;;;12.60;99.90;;;;;;4954837;29;20043;-54
2023/12/22 11:09:53;;;;;;;28.63;11.60;;;12.80;99.90;;;;;;4955353;29;20077;-53
2023/12/22 11:12:20;;;;;;;11.05;8.40;;;13.00;99.90;;;;;;4952864;29;20058;-56
2023/12/22 11:14:50;;;;;;;13.85;8.25;;;13.20;99.90;;;;;;4954832;29;20027;-53
2023/12/22 11:17:21;;;;;;;14.82;9.13;;;13.20;99.90;;;;;;4952141;28;20043;-52
2023/12/22 11:19:50;;;;;;;14.05;10.18;;;13.20;99.90;;;;;;4954488;29;20031;-54
2023/12/22 11:22:18;;;;;;;13.90;9.30;;;13.30;99.90;;;;;;4954592;29;20039;-54
2023/12/22 11:24:46;;;;;;;19.88;10.30;;;13.20;99.90;;;;;;4895179;29;20045;-54
2023/12/22 11:27:13;;;;;;;20.67;11.48;;;13.20;99.90;;;;;;4895127;29;20580;-55
2023/12/22 11:29:41;;;;;;;13.45;9.52;;;13.20;99.90;;;;;;4895169;29;20040;-51
2023/12/22 11:32:07;;;;;;;13.65;9.27;;;13.20;99.90;;;;;;4895095;29;20120;-55
2023/12/22 11:34:37;;;;;;;12.65;8.35;;;13.20;99.90;;;;;;4895260;29;20079;-50
2023/12/22 11:37:03;;;;;;;15.30;8.25;;;13.10;99.90;;;;;;4894962;29;20406;-51
2023/12/22 11:39:30;;;;;;;11.25;7.53;;;13.00;99.90;;;;;;4894961;29;20047;-54
2023/12/22 11:41:56;;;;;;;9.95;6.90;;;13.00;99.90;;;;;;4893847;29;20050;-53
2023/12/22 11:44:23;;;;;;;8.70;5.80;;;13.00;99.90;;;;;;4893931;29;20512;-52
2023/12/22 11:46:49;;;;;;;15.02;7.15;;;12.80;98.80;;;;;;4893904;29;20068;-53
2023/12/22 11:49:14;;;;;;;16.95;6.43;;;13.40;99.90;;;;;;4878191;29;20445;-50
2023/12/22 11:51:40;;;;;;;7.03;5.10;;;13.60;99.30;;;;;;4893757;29;20056;-54
2023/12/22 11:54:48;;;;;;;8.05;6.35;;;13.20;97.60;;;;;;4893800;29;20025;-50
2023/12/22 11:57:32;;;;;;;9.80;6.35;;;13.30;98.60;;;;;;4953573;29;20063;-51
2023/12/22 12:00:07;;;;;;;12.15;7.88;;;13.20;97.60;;;;;;4935822;29;20129;-51
2023/12/22 12:02:35;;;;;;;8.95;6.10;;;13.10;97.30;;;;;;4954305;29;20050;-50
2023/12/22 12:05:02;;;;;;;19.30;9.25;;;13.10;97.90;;;;;;4953844;29;20035;-53
2023/12/22 12:07:49;;;;;;;11.88;6.75;;;13.20;98.40;;;;;;4954271;29;20047;-51
2023/12/22 12:10:37;;;;;;;9.02;6.90;;;13.30;98.20;;;;;;4953889;29;20042;-51
2023/12/22 12:13:06;;;;;;;13.32;10.00;;;;;;;;;;4954138;29;20058;-54
2023/12/22 12:15:34;;;;;;;9.85;7.03;;;15.40;97.30;;;;;;4953880;29;20039;-52
2023/12/22 12:18:01;;;;;;;10.60;6.38;;;15.60;96.40;;;;;;4953759;29;20036;-51
2023/12/22 12:20:27;;;;;;;14.02;8.05;;;;;;;;;;4904171;29;20035;-55
2023/12/22 12:22:53;;;;;;;18.98;7.35;;;16.20;99.90;;;;;;4953820;29;20380;-54
2023/12/22 12:25:24;;;;;;;12.93;7.07;;;;;;;;;;4953678;29;20776;-52
2023/12/22 12:28:00;;;;;;;13.48;6.70;;;15.80;99.60;;;;;;4951043;29;20075;-55
2023/12/22 12:30:26;;;;;;;8.45;6.15;;;15.80;93.70;;;;;;4957287;28;20035;-55
2023/12/22 12:32:53;;;;;;;10.20;6.55;;;15.40;93.20;;;;;;4958250;29;20513;-52
2023/12/22 12:35:22;;;;;;;18.17;11.25;;;15.60;93.10;;;;;;4957610;29;20086;-55
2023/12/22 12:37:47;;;;;;;57.45;30.75;;;15.60;93.20;;;;;;4952183;29;20110;-52
2023/12/22 12:40:19;;;;;;;31.92;11.95;;;15.70;94.20;;;;;;4957879;29;20139;-54
2023/12/22 12:42:45;;;;;;;16.00;7.32;;;16.00;96.40;;;;;;4957721;29;20471;-55